createdAt,value
2023-01-29T00:01:14.445Z,3.50
2023-01-29T00:03:43.722Z,5.03
2023-01-29T00:06:13.430Z,3.50
2023-01-29T00:08:42.734Z,4.47
2023-01-29T00:11:12.504Z,4.50
2023-01-29T00:13:43.247Z,3.10
2023-01-29T00:16:12.881Z,3.03
2023-01-29T00:18:43.370Z,2.77
2023-01-29T00:21:13.746Z,6.60
2023-01-29T00:23:44.370Z,3.23
2023-01-29T00:26:14.493Z,2.87
2023-01-29T00:28:45.633Z,2.70
2023-01-29T00:31:18.394Z,4.10
2023-01-29T00:33:48.647Z,6.13
2023-01-29T00:36:21.193Z,3.37
2023-01-29T00:38:59.154Z,2.53
2023-01-29T00:41:48.375Z,3.70
2023-01-29T00:44:36.250Z,3.07
2023-01-29T00:47:28.101Z,2.53
2023-01-29T00:49:57.048Z,2.73
2023-01-29T00:52:26.636Z,3.07
2023-01-29T00:54:58.331Z,2.83
2023-01-29T00:57:29.532Z,3.57
2023-01-29T01:00:00.527Z,3.40
2023-01-29T01:02:47.773Z,3.20
2023-01-29T01:05:19.615Z,3.53
2023-01-29T01:07:50.325Z,4.60
2023-01-29T01:10:22.834Z,3.00
2023-01-29T01:12:59.082Z,3.17
2023-01-29T01:15:32.567Z,3.20
2023-01-29T01:18:04.145Z,3.57
2023-01-29T01:20:37.608Z,4.37
2023-01-29T01:23:07.020Z,2.97
2023-01-29T01:25:36.699Z,3.83
2023-01-29T01:28:05.847Z,2.50
2023-01-29T01:30:37.258Z,7.00
2023-01-29T01:33:06.707Z,5.40
2023-01-29T01:35:35.817Z,2.43
2023-01-29T01:38:05.188Z,3.40
2023-01-29T01:40:34.562Z,4.10
2023-01-29T01:43:04.515Z,4.40
2023-01-29T01:45:38.890Z,5.30
2023-01-29T01:48:14.481Z,3.60
2023-01-29T01:50:50.599Z,4.10
2023-01-29T01:53:28.394Z,2.80
2023-01-29T01:56:05.139Z,4.60
2023-01-29T01:58:40.939Z,4.53
2023-01-29T02:01:13.262Z,7.80
2023-01-29T02:04:07.142Z,4.77
2023-01-29T02:06:55.493Z,3.20
2023-01-29T02:09:35.529Z,2.87
2023-01-29T02:12:07.855Z,3.30
2023-01-29T02:14:40.800Z,2.93
2023-01-29T02:17:16.598Z,3.80
2023-01-29T02:19:57.384Z,3.77
2023-01-29T02:23:03.673Z,4.23
2023-01-29T02:26:17.328Z,3.50
2023-01-29T02:28:56.680Z,3.93
2023-01-29T02:31:40.218Z,3.70
2023-01-29T02:34:20.761Z,4.40
2023-01-29T02:36:59.517Z,4.50
2023-01-29T02:39:37.558Z,4.43
2023-01-29T02:42:24.772Z,3.67
2023-01-29T02:45:02.284Z,3.87
2023-01-29T02:47:41.193Z,4.50
2023-01-29T02:50:21.137Z,2.93
2023-01-29T02:53:00.734Z,6.43
2023-01-29T02:55:38.507Z,4.60
2023-01-29T02:58:16.837Z,3.40
2023-01-29T03:00:51.047Z,3.30
2023-01-29T03:03:27.643Z,4.00
2023-01-29T03:06:07.455Z,4.63
2023-01-29T03:08:46.281Z,3.17
2023-01-29T03:11:19.863Z,3.23
2023-01-29T03:13:57.857Z,3.80
2023-01-29T03:16:37.258Z,3.93
2023-01-29T03:19:14.156Z,2.43
2023-01-29T03:21:55.905Z,2.97
2023-01-29T03:24:54.536Z,2.83
2023-01-29T03:27:49.842Z,2.87
2023-01-29T03:30:38.969Z,6.73
2023-01-29T03:33:16.238Z,4.63
2023-01-29T03:35:55.961Z,3.23
2023-01-29T03:38:29.644Z,3.63
2023-01-29T03:41:08.049Z,15.70
2023-01-29T03:43:46.977Z,2.70
2023-01-29T03:46:29.709Z,4.23
2023-01-29T03:49:13.341Z,5.07
2023-01-29T03:51:57.566Z,3.13
2023-01-29T03:54:38.978Z,3.43
2023-01-29T03:57:17.213Z,3.43
2023-01-29T04:00:00.270Z,3.07
2023-01-29T04:02:37.749Z,3.00
2023-01-29T04:05:18.678Z,2.80
2023-01-29T04:07:52.498Z,4.90
2023-01-29T04:10:28.191Z,6.13
2023-01-29T04:13:03.362Z,3.87
2023-01-29T04:15:38.424Z,4.77
2023-01-29T04:18:08.558Z,3.30
2023-01-29T04:20:40.578Z,2.60
2023-01-29T04:23:22.889Z,5.53
2023-01-29T04:26:12.184Z,2.60
2023-01-29T04:29:08.807Z,3.10
2023-01-29T04:31:48.596Z,2.87
2023-01-29T04:34:29.424Z,4.03
2023-01-29T04:37:13.918Z,3.90
2023-01-29T04:39:54.098Z,3.20
2023-01-29T04:42:33.711Z,3.20
2023-01-29T04:45:17.762Z,3.00
2023-01-29T04:47:58.664Z,2.80
2023-01-29T04:50:39.019Z,2.80
2023-01-29T04:53:19.402Z,3.33
2023-01-29T04:55:57.396Z,2.70
2023-01-29T04:58:34.970Z,3.13
2023-01-29T05:01:08.283Z,2.43
2023-01-29T05:03:39.067Z,3.80
2023-01-29T05:06:13.063Z,3.33
2023-01-29T05:08:44.190Z,2.60
2023-01-29T05:11:15.024Z,2.47
2023-01-29T05:13:45.561Z,3.43
2023-01-29T05:16:22.905Z,2.87
2023-01-29T05:18:53.772Z,2.57
2023-01-29T05:21:24.689Z,3.93
2023-01-29T05:27:08.797Z,4.43
2023-01-29T05:29:38.302Z,2.70
2023-01-29T05:32:07.851Z,2.40
2023-01-29T05:34:37.531Z,3.90
2023-01-29T05:37:06.792Z,4.50
2023-01-29T05:39:36.938Z,4.00
2023-01-29T05:42:08.372Z,4.27
2023-01-29T05:44:38.275Z,2.37
2023-01-29T05:47:09.667Z,5.10
2023-01-29T05:49:41.228Z,6.00
2023-01-29T05:52:11.107Z,5.27
2023-01-29T05:54:40.628Z,3.10
2023-01-29T05:57:12.007Z,3.10
2023-01-29T05:59:41.486Z,2.77
2023-01-29T06:02:12.505Z,3.10
2023-01-29T06:04:42.446Z,8.00
2023-01-29T06:07:11.957Z,7.43
2023-01-29T06:09:41.202Z,3.20
2023-01-29T06:12:12.557Z,5.50
2023-01-29T06:14:42.673Z,3.00
2023-01-29T06:17:12.869Z,12.70
2023-01-29T06:19:43.416Z,2.83
2023-01-29T06:22:12.359Z,3.47
2023-01-29T06:24:43.258Z,3.07
2023-01-29T06:27:14.128Z,2.43
2023-01-29T06:29:44.025Z,3.50
2023-01-29T06:32:13.976Z,2.80
2023-01-29T06:34:44.474Z,3.30
2023-01-29T06:37:15.507Z,4.10
2023-01-29T06:39:45.420Z,5.33
2023-01-29T06:42:16.260Z,4.77
2023-01-29T06:44:47.038Z,4.80
2023-01-29T06:47:16.485Z,3.53
2023-01-29T06:49:46.937Z,3.30
2023-01-29T06:52:16.919Z,3.17
2023-01-29T06:54:45.875Z,3.70
2023-01-29T06:57:16.209Z,5.30
2023-01-29T06:59:45.814Z,2.87
2023-01-29T07:02:16.148Z,3.23
2023-01-29T07:04:46.046Z,4.00
2023-01-29T07:07:15.859Z,4.20
2023-01-29T07:09:46.033Z,4.33
2023-01-29T07:12:16.979Z,5.00
2023-01-29T07:14:47.775Z,3.23
2023-01-29T07:17:18.193Z,5.80
2023-01-29T07:19:47.620Z,2.77
2023-01-29T07:22:17.011Z,3.60
2023-01-29T07:24:47.046Z,3.90
2023-01-29T07:27:17.882Z,9.17
2023-01-29T07:29:47.186Z,6.80
2023-01-29T07:32:16.179Z,4.63
2023-01-29T07:34:46.532Z,4.43
2023-01-29T07:37:15.481Z,10.10
2023-01-29T07:39:47.129Z,3.73
2023-01-29T07:42:18.056Z,5.90
2023-01-29T07:44:50.644Z,2.90
2023-01-29T07:47:19.638Z,3.67
2023-01-29T07:49:48.997Z,5.17
2023-01-29T07:52:21.288Z,4.43
2023-01-29T07:54:51.025Z,4.03
2023-01-29T07:57:21.437Z,6.37
2023-01-29T07:59:50.850Z,4.83
2023-01-29T08:02:20.270Z,4.23
2023-01-29T08:04:50.645Z,3.27
2023-01-29T08:07:20.543Z,4.30
2023-01-29T08:09:50.943Z,3.37
2023-01-29T08:12:22.342Z,6.30
2023-01-29T08:14:53.003Z,4.17
2023-01-29T08:17:23.069Z,3.67
2023-01-29T08:19:51.472Z,3.80
2023-01-29T08:22:19.939Z,3.23
2023-01-29T08:24:54.490Z,2.90
2023-01-29T08:27:30.534Z,3.70
2023-01-29T08:30:00.526Z,3.80
2023-01-29T08:32:29.999Z,3.67
2023-01-29T08:34:59.586Z,4.90
2023-01-29T08:37:29.707Z,4.60
2023-01-29T08:39:59.694Z,5.97
2023-01-29T08:42:31.607Z,23.17
2023-01-29T08:45:01.580Z,5.57
2023-01-29T08:47:32.632Z,4.63
2023-01-29T08:50:02.117Z,5.73
2023-01-29T08:52:32.485Z,5.30
2023-01-29T08:55:02.333Z,7.57
2023-01-29T08:57:33.517Z,5.50
2023-01-29T09:00:04.334Z,5.17
2023-01-29T09:02:34.589Z,6.63
2023-01-29T09:05:03.575Z,7.13
2023-01-29T09:07:34.133Z,4.03
2023-01-29T09:10:03.095Z,5.33
2023-01-29T09:12:34.521Z,6.97
2023-01-29T09:15:03.988Z,4.33
2023-01-29T09:17:33.946Z,4.43
2023-01-29T09:20:02.949Z,4.33
2023-01-29T09:22:33.528Z,5.80
2023-01-29T09:25:03.626Z,5.77
2023-01-29T09:27:33.964Z,5.27
2023-01-29T09:30:02.689Z,3.27
2023-01-29T09:33:02.017Z,4.70
2023-01-29T09:35:22.093Z,4.97
2023-01-29T09:37:51.582Z,5.20
2023-01-29T09:40:28.830Z,3.77
2023-01-29T09:43:05.691Z,4.47
2023-01-29T09:45:35.836Z,5.07
2023-01-29T09:48:07.369Z,4.93
2023-01-29T09:50:41.072Z,4.97
2023-01-29T09:53:22.219Z,5.93
2023-01-29T09:56:01.021Z,7.07
2023-01-29T09:58:37.834Z,5.20
2023-01-29T10:01:19.608Z,4.87
2023-01-29T10:04:16.035Z,6.77
2023-01-29T10:07:07.654Z,6.27
2023-01-29T10:10:34.031Z,4.30
2023-01-29T10:13:16.741Z,4.83
2023-01-29T10:16:15.007Z,3.93
2023-01-29T10:19:40.627Z,6.03
2023-01-29T10:22:56.137Z,4.00
2023-01-29T10:25:26.711Z,4.63
2023-01-29T10:28:00.589Z,5.60
2023-01-29T10:30:37.163Z,5.90
2023-01-29T10:33:15.146Z,3.87
2023-01-29T10:35:53.381Z,4.00
2023-01-29T10:38:48.467Z,4.77
2023-01-29T10:41:37.506Z,6.23
2023-01-29T10:44:25.165Z,4.90
2023-01-29T10:47:24.255Z,3.33
2023-01-29T10:50:19.220Z,3.47
2023-01-29T10:53:18.942Z,4.87
2023-01-29T10:56:02.523Z,4.23
2023-01-29T10:58:44.608Z,3.53
2023-01-29T11:01:16.602Z,3.27
2023-01-29T11:03:46.839Z,3.40
2023-01-29T11:06:25.425Z,5.97
2023-01-29T11:09:04.561Z,6.50
2023-01-29T11:11:42.037Z,5.00
2023-01-29T11:14:20.728Z,4.20
2023-01-29T11:16:50.271Z,5.07
2023-01-29T11:19:20.791Z,4.90
2023-01-29T11:22:01.633Z,4.07
2023-01-29T11:24:30.759Z,5.40
2023-01-29T11:27:02.286Z,4.93
2023-01-29T11:29:42.171Z,7.10
2023-01-29T11:32:17.041Z,4.33
2023-01-29T11:35:05.679Z,5.43
2023-01-29T11:37:39.821Z,5.20
2023-01-29T11:40:42.432Z,3.60
2023-01-29T11:43:24.404Z,3.70
2023-01-29T11:45:57.307Z,5.20
2023-01-29T11:48:40.637Z,5.13
2023-01-29T11:51:14.593Z,8.47
2023-01-29T11:53:52.774Z,4.37
2023-01-29T11:56:30.601Z,5.70
2023-01-29T11:59:04.439Z,5.00
2023-01-29T12:01:39.105Z,6.53
2023-01-29T12:04:22.915Z,3.97
2023-01-29T12:06:56.583Z,4.13
2023-01-29T12:09:31.565Z,3.70
2023-01-29T12:12:27.762Z,4.93
2023-01-29T12:15:20.178Z,3.33
2023-01-29T12:18:30.627Z,7.60
2023-01-29T12:21:04.572Z,4.47
2023-01-29T12:23:45.676Z,9.40
2023-01-29T12:26:23.433Z,5.43
2023-01-29T12:29:14.625Z,3.17
2023-01-29T12:31:53.453Z,3.97
2023-01-29T12:34:34.904Z,5.30
2023-01-29T12:37:18.618Z,4.43
2023-01-29T12:39:49.691Z,5.60
2023-01-29T12:42:23.366Z,5.17
2023-01-29T12:44:59.529Z,5.33
2023-01-29T12:47:35.377Z,4.50
2023-01-29T12:50:16.431Z,4.03
2023-01-29T12:52:50.604Z,3.87
2023-01-29T12:55:24.772Z,5.60
2023-01-29T12:57:59.954Z,4.87
2023-01-29T13:00:35.053Z,5.73
2023-01-29T13:03:16.937Z,9.90
2023-01-29T13:05:51.283Z,13.20
2023-01-29T13:08:27.842Z,4.63
2023-01-29T13:11:02.682Z,5.53
2023-01-29T13:13:38.013Z,4.40
2023-01-29T13:16:13.905Z,6.90
2023-01-29T13:18:49.186Z,4.90
2023-01-29T13:21:22.213Z,6.37
2023-01-29T13:23:57.375Z,3.97
2023-01-29T13:26:28.822Z,10.93
2023-01-29T13:29:00.616Z,5.13
2023-01-29T13:31:34.174Z,4.20
2023-01-29T13:34:18.344Z,8.07
2023-01-29T13:36:52.050Z,5.47
2023-01-29T13:39:28.382Z,3.83
2023-01-29T13:42:00.589Z,4.63
2023-01-29T13:44:37.216Z,3.97
2023-01-29T13:47:11.579Z,3.90
2023-01-29T13:49:46.364Z,4.13
2023-01-29T13:52:33.512Z,4.63
2023-01-29T13:55:09.639Z,5.67
2023-01-29T13:57:57.226Z,5.23
2023-01-29T14:01:02.242Z,6.50
2023-01-29T14:04:04.823Z,3.83
2023-01-29T14:06:44.721Z,5.60
2023-01-29T14:10:05.213Z,4.40
2023-01-29T14:12:50.399Z,4.00
2023-01-29T14:15:36.027Z,5.10
2023-01-29T14:18:29.204Z,5.27
2023-01-29T14:21:08.130Z,4.07
2023-01-29T14:23:45.251Z,7.97
2023-01-29T14:26:46.531Z,12.80
2023-01-29T14:29:34.329Z,4.47
2023-01-29T14:32:19.418Z,4.07
2023-01-29T14:34:52.421Z,4.00
2023-01-29T14:37:30.817Z,5.90
2023-01-29T14:40:10.406Z,3.47
2023-01-29T14:42:48.576Z,6.47
2023-01-29T14:45:29.984Z,4.97
2023-01-29T14:48:49.235Z,3.93
2023-01-29T14:51:22.364Z,6.13
2023-01-29T14:54:03.816Z,4.30
2023-01-29T14:56:38.387Z,4.20
2023-01-29T14:59:20.663Z,5.23
2023-01-29T15:01:55.949Z,4.90
2023-01-29T15:04:30.876Z,4.97
2023-01-29T15:07:07.650Z,7.67
2023-01-29T15:09:47.450Z,4.40
2023-01-29T15:12:28.340Z,5.20
2023-01-29T15:15:12.562Z,3.83
2023-01-29T15:17:53.534Z,4.87
2023-01-29T15:20:33.699Z,5.30
2023-01-29T15:23:06.677Z,8.10
2023-01-29T15:25:48.633Z,5.30
2023-01-29T15:28:18.958Z,5.73
2023-01-29T15:30:55.292Z,4.60
2023-01-29T15:33:24.379Z,5.40
2023-01-29T15:36:07.507Z,5.50
2023-01-29T15:38:38.308Z,7.60
2023-01-29T15:41:22.028Z,5.53
2023-01-29T15:43:59.481Z,4.57
2023-01-29T15:46:34.417Z,6.77
2023-01-29T15:49:09.886Z,6.70
2023-01-29T15:51:40.408Z,11.33
2023-01-29T15:54:17.629Z,7.23
2023-01-29T15:56:53.258Z,7.20
2023-01-29T15:59:28.639Z,7.27
2023-01-29T16:01:58.728Z,7.17
2023-01-29T16:04:31.498Z,5.90
2023-01-29T16:07:04.327Z,9.03
2023-01-29T16:09:36.104Z,7.00
2023-01-29T16:12:06.369Z,7.73
2023-01-29T16:14:35.923Z,7.30
2023-01-29T16:17:25.162Z,6.20
2023-01-29T16:20:02.092Z,9.43
2023-01-29T16:22:35.360Z,7.03
2023-01-29T16:25:09.041Z,8.87
2023-01-29T16:27:38.749Z,7.13
2023-01-29T16:30:08.863Z,7.43
2023-01-29T16:32:38.234Z,10.70
2023-01-29T16:35:14.962Z,10.40
2023-01-29T16:37:49.607Z,11.80
2023-01-29T16:40:33.115Z,10.80
2023-01-29T16:43:50.832Z,11.80
2023-01-29T16:46:28.347Z,11.00
2023-01-29T16:48:59.012Z,11.30
2023-01-29T16:51:32.140Z,10.23
2023-01-29T16:54:07.932Z,13.63
2023-01-29T16:56:42.018Z,16.30
2023-01-29T16:59:26.807Z,12.70
2023-01-29T17:01:57.823Z,12.13
2023-01-29T17:04:27.307Z,11.70
2023-01-29T17:07:01.085Z,18.13
2023-01-29T17:09:34.964Z,15.17
2023-01-29T17:12:09.332Z,14.17
2023-01-29T17:14:42.753Z,12.30
2023-01-29T17:17:20.192Z,12.63
2023-01-29T17:19:49.292Z,15.40
2023-01-29T17:22:18.775Z,14.20
2023-01-29T17:24:51.421Z,14.83
2023-01-29T17:27:23.801Z,14.60
2023-01-29T17:29:54.162Z,16.77
2023-01-29T17:32:24.133Z,16.23
2023-01-29T17:34:53.694Z,14.53
2023-01-29T17:37:22.186Z,21.40
2023-01-29T17:39:53.241Z,17.57
2023-01-29T17:42:25.860Z,15.00
2023-01-29T17:44:55.826Z,16.70
2023-01-29T17:47:25.290Z,17.97
2023-01-29T17:49:54.382Z,18.60
2023-01-29T17:52:24.102Z,21.87
2023-01-29T17:54:54.122Z,15.80
2023-01-29T17:57:25.640Z,16.47
2023-01-29T17:59:55.961Z,17.10
2023-01-29T18:02:29.607Z,16.67
2023-01-29T18:04:59.555Z,17.70
2023-01-29T18:07:29.048Z,15.60
2023-01-29T18:09:59.101Z,15.73
2023-01-29T18:12:29.927Z,16.27
2023-01-29T18:14:59.342Z,15.77
2023-01-29T18:17:27.835Z,20.23
2023-01-29T18:19:59.646Z,19.03
2023-01-29T18:22:29.209Z,18.63
2023-01-29T18:24:59.252Z,18.33
2023-01-29T18:27:29.402Z,23.80
2023-01-29T18:29:59.113Z,18.67
2023-01-29T18:32:28.481Z,20.67
2023-01-29T18:34:57.467Z,21.07
2023-01-29T18:37:26.604Z,21.00
2023-01-29T18:39:56.107Z,23.00
2023-01-29T18:42:26.194Z,21.33
2023-01-29T18:44:56.977Z,21.63
2023-01-29T18:47:25.947Z,23.00
2023-01-29T18:49:55.300Z,20.67
2023-01-29T18:52:23.992Z,24.20
2023-01-29T18:54:53.514Z,21.47
2023-01-29T18:58:26.515Z,24.50
2023-01-29T19:00:15.410Z,19.83
2023-01-29T19:02:46.777Z,18.90
2023-01-29T19:05:17.124Z,17.50
2023-01-29T19:07:46.479Z,22.43
2023-01-29T19:10:17.824Z,24.07
2023-01-29T19:12:47.209Z,21.27
2023-01-29T19:15:20.697Z,17.43
2023-01-29T19:17:51.456Z,16.40
2023-01-29T19:20:20.367Z,17.57
2023-01-29T19:22:49.925Z,14.80
2023-01-29T19:25:20.266Z,18.97
2023-01-29T19:27:50.228Z,20.43
2023-01-29T19:30:20.879Z,25.00
2023-01-29T19:32:50.890Z,17.97
2023-01-29T19:35:20.868Z,19.83
2023-01-29T19:37:49.741Z,18.17
2023-01-29T19:40:20.457Z,20.77
2023-01-29T19:42:49.515Z,17.23
2023-01-29T19:45:49.128Z,18.63
2023-01-29T19:48:15.055Z,19.63
2023-01-29T19:50:44.199Z,22.53
2023-01-29T19:53:14.154Z,24.17
2023-01-29T19:55:42.802Z,20.87
2023-01-29T19:58:11.661Z,20.10
2023-01-29T20:00:43.038Z,23.97
2023-01-29T20:03:11.884Z,26.83
2023-01-29T20:05:41.390Z,42.13
2023-01-29T20:08:10.704Z,22.43
2023-01-29T20:10:40.643Z,22.80
2023-01-29T20:13:09.581Z,24.43
2023-01-29T20:15:38.509Z,19.57
2023-01-29T20:18:11.873Z,22.10
2023-01-29T20:20:44.309Z,22.87
2023-01-29T20:23:14.749Z,15.87
2023-01-29T20:25:45.164Z,19.70
2023-01-29T20:28:16.589Z,17.90
2023-01-29T20:30:47.094Z,17.20
2023-01-29T20:33:18.481Z,17.80
2023-01-29T20:35:47.516Z,17.43
2023-01-29T20:38:16.459Z,18.90
2023-01-29T20:40:46.118Z,20.67
2023-01-29T20:43:15.100Z,19.23
2023-01-29T20:45:45.285Z,20.23
2023-01-29T20:48:17.494Z,19.47
2023-01-29T20:50:47.186Z,17.73
2023-01-29T20:53:17.173Z,15.07
2023-01-29T20:55:47.018Z,15.60
2023-01-29T20:58:18.197Z,22.33
2023-01-29T21:00:48.326Z,19.70
2023-01-29T21:03:19.759Z,16.20
2023-01-29T21:05:49.314Z,24.53
2023-01-29T21:08:18.227Z,20.57
2023-01-29T21:10:47.177Z,22.50
2023-01-29T21:13:17.813Z,17.27
2023-01-29T21:15:48.095Z,19.00
2023-01-29T21:18:18.557Z,17.20
2023-01-29T21:20:47.938Z,20.60
2023-01-29T21:23:17.874Z,23.13
2023-01-29T21:25:48.897Z,20.97
2023-01-29T21:28:17.530Z,20.37
2023-01-29T21:30:48.435Z,18.90
2023-01-29T21:33:19.533Z,21.47
2023-01-29T21:35:57.766Z,23.13
2023-01-29T21:38:27.469Z,18.60
2023-01-29T21:41:02.480Z,18.17
2023-01-29T21:43:31.034Z,19.33
2023-01-29T21:46:03.882Z,22.10
2023-01-29T21:48:35.834Z,21.57
2023-01-29T21:51:05.403Z,24.10
2023-01-29T21:53:34.546Z,23.00
2023-01-29T21:56:05.073Z,23.87
2023-01-29T21:58:35.142Z,21.70
2023-01-29T22:01:28.036Z,27.37
2023-01-29T22:03:55.208Z,20.97
2023-01-29T22:06:25.476Z,25.70
2023-01-29T22:08:55.066Z,19.10
2023-01-29T22:11:24.218Z,18.47
2023-01-29T22:13:53.600Z,22.20
2023-01-29T22:16:23.545Z,22.30
2023-01-29T22:18:54.898Z,32.63
2023-01-29T22:21:25.907Z,22.03
2023-01-29T22:23:55.380Z,24.40
2023-01-29T22:26:24.945Z,27.40
2023-01-29T22:28:54.876Z,23.20
2023-01-29T22:31:24.071Z,17.60
2023-01-29T22:33:56.554Z,20.37
2023-01-29T22:36:26.536Z,21.37
2023-01-29T22:38:55.900Z,18.27
2023-01-29T22:41:25.259Z,19.87
2023-01-29T22:43:54.552Z,20.87
2023-01-29T22:46:24.147Z,20.70
2023-01-29T22:48:56.275Z,14.17
2023-01-29T22:51:27.007Z,18.60
2023-01-29T22:53:58.489Z,19.00
2023-01-29T22:56:31.703Z,21.70
2023-01-29T22:59:02.413Z,22.07
2023-01-29T23:01:33.447Z,20.27
2023-01-29T23:04:04.454Z,21.30
2023-01-29T23:06:33.370Z,22.03
2023-01-29T23:09:03.781Z,19.63
2023-01-29T23:11:33.730Z,17.40
2023-01-29T23:14:03.633Z,20.17
2023-01-29T23:16:32.006Z,19.17
2023-01-29T23:19:03.424Z,20.50
2023-01-29T23:21:32.843Z,25.27
2023-01-29T23:24:02.816Z,21.80
2023-01-29T23:26:49.563Z,24.37
2023-01-29T23:29:20.101Z,14.90
2023-01-29T23:31:49.704Z,18.63
2023-01-29T23:34:20.663Z,20.83
2023-01-29T23:36:51.260Z,19.17
2023-01-29T23:39:21.256Z,19.43
2023-01-29T23:41:50.763Z,25.00
2023-01-29T23:44:21.197Z,17.93
2023-01-29T23:46:51.806Z,20.90
2023-01-29T23:49:22.673Z,19.30
2023-01-29T23:51:52.516Z,18.07
2023-01-29T23:54:22.061Z,20.87
2023-01-29T23:56:51.416Z,20.97
2023-01-29T23:59:20.235Z,23.27
